createdAt,value
2022-12-03T00:01:53.891Z,21.10
2022-12-03T00:04:20.971Z,22.17
2022-12-03T00:06:47.815Z,22.40
2022-12-03T00:09:14.706Z,23.63
2022-12-03T00:11:41.534Z,25.43
2022-12-03T00:14:08.311Z,22.53
2022-12-03T00:16:35.232Z,22.83
2022-12-03T00:19:02.122Z,22.27
2022-12-03T00:21:29.494Z,23.80
2022-12-03T00:23:56.329Z,20.13
2022-12-03T00:26:23.173Z,19.90
2022-12-03T00:28:51.249Z,20.13
2022-12-03T00:31:18.774Z,21.93
2022-12-03T00:33:45.643Z,25.23
2022-12-03T00:36:12.503Z,23.80
2022-12-03T00:38:39.287Z,23.90
2022-12-03T00:41:06.369Z,23.37
2022-12-03T00:43:33.198Z,23.20
2022-12-03T00:46:01.166Z,21.73
2022-12-03T00:48:28.069Z,22.37
2022-12-03T00:50:54.918Z,23.43
2022-12-03T00:53:21.741Z,22.00
2022-12-03T00:55:50.593Z,21.63
2022-12-03T00:58:18.443Z,24.97
2022-12-03T01:00:45.226Z,21.87
2022-12-03T01:03:12.098Z,25.67
2022-12-03T01:05:38.977Z,22.17
2022-12-03T01:08:06.001Z,24.97
2022-12-03T01:10:32.816Z,23.83
2022-12-03T01:12:59.619Z,23.17
2022-12-03T01:15:27.318Z,21.97
2022-12-03T01:17:54.265Z,25.47
2022-12-03T01:20:21.222Z,23.93
2022-12-03T01:22:48.063Z,23.40
2022-12-03T01:25:15.072Z,26.70
2022-12-03T01:27:41.969Z,22.50
2022-12-03T01:30:10.959Z,21.77
2022-12-03T01:32:37.770Z,22.17
2022-12-03T01:35:05.714Z,22.90
2022-12-03T01:37:32.812Z,21.57
2022-12-03T01:39:59.682Z,25.27
2022-12-03T01:42:35.496Z,25.83
2022-12-03T01:45:03.046Z,24.63
2022-12-03T01:47:36.968Z,24.87
2022-12-03T01:50:11.332Z,24.37
2022-12-03T01:52:40.723Z,27.43
2022-12-03T01:55:17.111Z,27.00
2022-12-03T01:57:59.142Z,25.70
2022-12-03T02:00:28.134Z,24.87
2022-12-03T02:03:03.699Z,24.83
2022-12-03T02:05:33.613Z,24.10
2022-12-03T02:08:01.225Z,23.40
2022-12-03T02:10:37.532Z,27.00
2022-12-03T02:13:10.231Z,26.20
2022-12-03T02:15:40.309Z,28.27
2022-12-03T02:18:09.342Z,25.67
2022-12-03T02:21:13.031Z,25.83
2022-12-03T02:24:19.604Z,25.50
2022-12-03T02:26:46.503Z,25.93
2022-12-03T02:29:13.450Z,27.40
2022-12-03T02:31:40.400Z,25.33
2022-12-03T02:34:08.432Z,27.23
2022-12-03T02:36:37.761Z,28.27
2022-12-03T02:39:06.337Z,28.47
2022-12-03T02:41:52.155Z,26.23
2022-12-03T02:44:19.360Z,29.10
2022-12-03T02:46:46.240Z,25.63
2022-12-03T02:49:13.580Z,24.97
2022-12-03T02:51:40.526Z,26.40
2022-12-03T02:54:08.212Z,24.67
2022-12-03T02:56:35.102Z,24.93
2022-12-03T02:59:05.181Z,25.37
2022-12-03T03:01:32.606Z,25.20
2022-12-03T03:04:00.676Z,31.77
2022-12-03T03:06:27.611Z,26.27
2022-12-03T03:09:10.025Z,25.50
2022-12-03T03:11:36.998Z,26.33
2022-12-03T03:14:04.048Z,28.30
2022-12-03T03:16:32.892Z,25.60
2022-12-03T03:19:00.323Z,30.73
2022-12-03T03:21:27.237Z,29.80
2022-12-03T03:23:54.103Z,27.40
2022-12-03T03:26:21.021Z,27.60
2022-12-03T03:28:51.858Z,25.40
2022-12-03T03:31:23.615Z,28.60
2022-12-03T03:33:51.531Z,26.63
2022-12-03T03:36:20.075Z,30.57
2022-12-03T03:38:47.863Z,29.53
2022-12-03T03:41:15.845Z,25.47
2022-12-03T03:43:45.523Z,29.40
2022-12-03T03:46:14.632Z,29.40
2022-12-03T03:48:43.851Z,25.63
2022-12-03T03:51:12.814Z,28.57
2022-12-03T03:53:45.684Z,27.07
2022-12-03T03:56:13.209Z,31.67
2022-12-03T03:58:40.217Z,26.93
2022-12-03T04:01:08.724Z,27.13
2022-12-03T04:03:35.637Z,28.77
2022-12-03T04:06:04.445Z,32.23
2022-12-03T04:08:31.839Z,28.17
2022-12-03T04:11:17.519Z,28.50
2022-12-03T04:13:44.380Z,26.67
2022-12-03T04:16:11.189Z,28.53
2022-12-03T04:18:43.861Z,27.97
2022-12-03T04:21:38.017Z,28.20
2022-12-03T04:24:07.336Z,26.20
2022-12-03T04:26:53.099Z,24.43
2022-12-03T04:29:21.504Z,25.70
2022-12-03T04:32:07.191Z,28.13
2022-12-03T04:34:53.053Z,29.57
2022-12-03T04:37:20.376Z,31.13
2022-12-03T04:39:47.206Z,31.07
2022-12-03T04:42:14.290Z,27.87
2022-12-03T04:44:41.121Z,30.60
2022-12-03T04:47:17.689Z,29.20
2022-12-03T04:49:51.130Z,27.17
2022-12-03T04:52:20.147Z,31.27
2022-12-03T04:54:47.229Z,30.43
2022-12-03T04:57:14.257Z,30.13
2022-12-03T04:59:41.374Z,29.93
2022-12-03T05:02:08.595Z,30.37
2022-12-03T05:04:35.547Z,29.90
2022-12-03T05:07:02.527Z,27.77
2022-12-03T05:09:29.547Z,24.53
2022-12-03T05:11:56.415Z,28.83
2022-12-03T05:14:23.429Z,30.30
2022-12-03T05:16:50.401Z,31.93
2022-12-03T05:19:17.245Z,29.60
2022-12-03T05:21:44.121Z,28.90
2022-12-03T05:24:10.989Z,32.97
2022-12-03T05:26:37.859Z,34.40
2022-12-03T05:29:04.683Z,28.27
2022-12-03T05:31:31.620Z,29.07
2022-12-03T05:33:58.450Z,28.07
2022-12-03T05:36:25.569Z,31.50
2022-12-03T05:38:52.406Z,32.93
2022-12-03T05:41:38.554Z,32.77
2022-12-03T05:44:05.516Z,28.67
2022-12-03T05:46:32.884Z,33.00
2022-12-03T05:48:59.926Z,36.30
2022-12-03T05:51:26.762Z,36.57
2022-12-03T05:53:53.629Z,34.13
2022-12-03T05:56:20.435Z,30.50
2022-12-03T05:58:47.273Z,32.30
2022-12-03T06:01:14.078Z,33.93
2022-12-03T06:03:41.199Z,33.23
2022-12-03T06:06:08.116Z,33.10
2022-12-03T06:08:34.924Z,28.50
2022-12-03T06:11:01.734Z,32.50
2022-12-03T06:13:28.607Z,30.17
2022-12-03T06:15:55.467Z,33.03
2022-12-03T06:18:22.360Z,32.53
2022-12-03T06:20:49.246Z,35.90
2022-12-03T06:23:16.198Z,33.23
2022-12-03T06:25:43.024Z,33.63
2022-12-03T06:28:09.846Z,29.30
2022-12-03T06:30:36.682Z,29.97
2022-12-03T06:33:03.686Z,28.67
2022-12-03T06:35:30.515Z,27.53
2022-12-03T06:37:57.396Z,33.13
2022-12-03T06:40:25.040Z,30.90
2022-12-03T06:42:52.271Z,30.50
2022-12-03T06:45:19.285Z,29.63
2022-12-03T06:47:46.322Z,29.27
2022-12-03T06:50:13.853Z,32.37
2022-12-03T06:52:40.926Z,29.73
2022-12-03T06:55:09.170Z,29.20
2022-12-03T06:57:36.116Z,29.03
2022-12-03T07:00:06.462Z,30.83
2022-12-03T07:02:33.377Z,33.10
2022-12-03T07:05:00.318Z,30.30
2022-12-03T07:07:27.246Z,30.23
2022-12-03T07:09:54.246Z,33.80
2022-12-03T07:12:21.174Z,30.07
2022-12-03T07:14:48.153Z,28.73
2022-12-03T07:17:14.968Z,27.37
2022-12-03T07:19:42.874Z,33.77
2022-12-03T07:22:09.811Z,30.97
2022-12-03T07:24:36.600Z,32.60
2022-12-03T07:27:03.638Z,30.63
2022-12-03T07:29:30.592Z,32.17
2022-12-03T07:31:57.485Z,30.17
2022-12-03T07:34:24.361Z,34.00
2022-12-03T07:36:51.200Z,32.57
2022-12-03T07:39:18.120Z,30.43
2022-12-03T07:41:45.114Z,30.27
2022-12-03T07:44:14.789Z,32.77
2022-12-03T07:46:43.008Z,28.77
2022-12-03T07:49:10.187Z,31.57
2022-12-03T07:51:37.099Z,31.83
2022-12-03T07:54:04.987Z,35.10
2022-12-03T07:56:32.145Z,27.97
2022-12-03T07:58:58.934Z,31.30
2022-12-03T08:01:26.013Z,29.03
2022-12-03T08:03:52.907Z,29.40
2022-12-03T08:06:19.768Z,32.83
2022-12-03T08:08:46.580Z,31.47
2022-12-03T08:11:14.886Z,29.50
2022-12-03T08:13:41.753Z,33.70
2022-12-03T08:16:18.667Z,29.60
2022-12-03T08:18:47.529Z,31.60
2022-12-03T08:21:21.376Z,32.03
2022-12-03T08:23:48.448Z,31.00
2022-12-03T08:26:28.156Z,31.97
2022-12-03T08:28:55.190Z,29.07
2022-12-03T08:31:32.446Z,30.17
2022-12-03T08:34:24.427Z,32.23
2022-12-03T08:36:59.642Z,28.67
2022-12-03T08:39:46.974Z,28.37
2022-12-03T08:42:42.115Z,34.43
2022-12-03T08:45:40.364Z,35.10
2022-12-03T08:48:39.252Z,31.23
2022-12-03T08:51:25.041Z,27.50
2022-12-03T08:54:01.833Z,26.90
2022-12-03T08:56:36.748Z,30.57
2022-12-03T08:59:32.090Z,30.57
2022-12-03T09:01:59.874Z,27.83
2022-12-03T09:04:35.931Z,28.63
2022-12-03T09:07:03.025Z,28.03
2022-12-03T09:09:30.106Z,27.13
2022-12-03T09:11:57.010Z,23.87
2022-12-03T09:14:24.120Z,25.43
2022-12-03T09:16:56.226Z,31.30
2022-12-03T09:19:26.912Z,25.30
2022-12-03T09:21:54.652Z,25.63
2022-12-03T09:24:22.039Z,26.10
2022-12-03T09:26:49.376Z,22.90
2022-12-03T09:29:16.230Z,20.30
2022-12-03T09:31:43.093Z,23.17
2022-12-03T09:34:11.078Z,21.50
2022-12-03T09:36:37.961Z,25.37
2022-12-03T09:39:05.294Z,22.00
2022-12-03T09:41:32.276Z,25.63
2022-12-03T09:44:08.595Z,24.83
2022-12-03T09:46:40.119Z,26.73
2022-12-03T09:49:15.818Z,25.57
2022-12-03T09:51:45.291Z,24.23
2022-12-03T09:54:24.458Z,25.00
2022-12-03T09:56:54.885Z,23.23
2022-12-03T09:59:35.107Z,25.80
2022-12-03T10:02:03.467Z,28.87
2022-12-03T10:04:30.830Z,27.57
2022-12-03T10:06:58.949Z,26.53
2022-12-03T10:09:29.047Z,25.87
2022-12-03T10:11:59.695Z,26.50
2022-12-03T10:14:27.700Z,25.13
2022-12-03T10:16:55.588Z,27.63
2022-12-03T10:19:30.295Z,25.03
2022-12-03T10:21:58.273Z,25.50
2022-12-03T10:24:26.464Z,25.40
2022-12-03T10:26:57.709Z,22.30
2022-12-03T10:29:34.376Z,22.37
2022-12-03T10:32:10.477Z,21.63
2022-12-03T10:34:42.502Z,26.40
2022-12-03T10:37:21.464Z,27.33
2022-12-03T10:39:56.452Z,27.90
2022-12-03T10:42:25.439Z,21.17
2022-12-03T10:45:23.059Z,23.80
2022-12-03T10:48:13.785Z,22.73
2022-12-03T10:50:53.050Z,26.23
2022-12-03T10:53:28.585Z,22.90
2022-12-03T10:55:59.392Z,22.80
2022-12-03T10:58:30.061Z,23.50
2022-12-03T11:01:03.425Z,25.90
2022-12-03T11:03:36.006Z,25.77
2022-12-03T11:06:03.856Z,23.90
2022-12-03T11:08:35.664Z,24.27
2022-12-03T11:11:07.981Z,25.03
2022-12-03T11:13:34.756Z,27.00
2022-12-03T11:16:05.220Z,24.93
2022-12-03T11:18:57.686Z,25.40
2022-12-03T11:21:25.211Z,26.67
2022-12-03T11:24:15.577Z,24.27
2022-12-03T11:26:42.299Z,24.13
2022-12-03T11:29:15.472Z,24.37
2022-12-03T11:31:48.141Z,26.30
2022-12-03T11:34:21.038Z,27.90
2022-12-03T11:37:09.458Z,27.80
2022-12-03T11:39:47.835Z,24.97
2022-12-03T11:42:26.270Z,27.27
2022-12-03T11:45:05.312Z,28.10
2022-12-03T11:48:02.381Z,27.50
2022-12-03T11:50:53.646Z,25.00
2022-12-03T11:53:26.082Z,25.17
2022-12-03T11:56:08.776Z,25.33
2022-12-03T11:58:42.252Z,22.93
2022-12-03T12:01:09.871Z,21.60
2022-12-03T12:03:36.664Z,26.53
2022-12-03T12:06:12.705Z,25.50
2022-12-03T12:08:59.900Z,26.13
2022-12-03T12:11:43.707Z,28.63
2022-12-03T12:14:13.358Z,28.00
2022-12-03T12:16:55.193Z,24.60
2022-12-03T12:19:41.209Z,26.73
2022-12-03T12:22:24.829Z,26.23
2022-12-03T12:24:56.461Z,25.10
2022-12-03T12:27:47.343Z,29.73
2022-12-03T12:30:21.715Z,31.53
2022-12-03T12:33:07.345Z,27.93
2022-12-03T12:35:34.193Z,26.07
2022-12-03T12:38:06.181Z,26.90
2022-12-03T12:40:40.426Z,31.70
2022-12-03T12:43:30.710Z,28.07
2022-12-03T12:46:39.068Z,34.70
2022-12-03T12:48:59.876Z,30.40
2022-12-03T12:51:26.935Z,32.27
2022-12-03T12:53:53.903Z,26.97
2022-12-03T12:56:30.246Z,30.17
2022-12-03T12:59:11.165Z,31.33
2022-12-03T13:01:38.957Z,27.60
2022-12-03T13:04:16.524Z,28.30
2022-12-03T13:06:45.109Z,27.20
2022-12-03T13:09:25.077Z,30.00
2022-12-03T13:11:58.346Z,29.90
2022-12-03T13:14:31.749Z,29.70
2022-12-03T13:17:02.041Z,33.47
2022-12-03T13:19:43.339Z,33.70
2022-12-03T13:22:19.649Z,29.87
2022-12-03T13:24:56.009Z,30.20
2022-12-03T13:27:29.630Z,31.23
2022-12-03T13:30:20.921Z,32.00
2022-12-03T13:32:47.887Z,34.03
2022-12-03T13:35:35.388Z,35.80
2022-12-03T13:38:13.509Z,33.63
2022-12-03T13:40:41.479Z,40.10
2022-12-03T13:43:16.521Z,31.67
2022-12-03T13:45:46.977Z,30.47
2022-12-03T13:48:28.712Z,32.40
2022-12-03T13:50:56.063Z,31.27
2022-12-03T13:53:28.099Z,34.30
2022-12-03T13:56:30.461Z,33.50
2022-12-03T13:59:00.319Z,32.13
2022-12-03T14:01:28.569Z,37.73
2022-12-03T14:03:56.363Z,34.03
2022-12-03T14:06:23.225Z,34.03
2022-12-03T14:08:50.149Z,32.07
2022-12-03T14:11:35.786Z,37.23
2022-12-03T14:14:02.963Z,38.50
2022-12-03T14:16:29.799Z,31.93
2022-12-03T14:18:56.711Z,33.50
2022-12-03T14:21:23.528Z,32.13
2022-12-03T14:23:50.374Z,37.37
2022-12-03T14:26:17.255Z,33.30
2022-12-03T14:28:44.094Z,32.73
2022-12-03T14:31:10.875Z,32.83
2022-12-03T14:33:37.850Z,31.70
2022-12-03T14:36:05.073Z,34.97
2022-12-03T14:38:31.988Z,40.60
2022-12-03T14:40:58.790Z,33.57
2022-12-03T14:43:25.667Z,36.10
2022-12-03T14:45:52.472Z,32.23
2022-12-03T14:48:21.013Z,35.17
2022-12-03T14:50:47.844Z,37.67
2022-12-03T14:53:14.702Z,35.70
2022-12-03T14:55:41.585Z,40.03
2022-12-03T14:58:08.390Z,36.70
2022-12-03T15:00:35.271Z,38.37
2022-12-03T15:03:02.203Z,37.27
2022-12-03T15:05:29.313Z,34.60
2022-12-03T15:07:56.628Z,37.27
2022-12-03T15:10:23.520Z,34.07
2022-12-03T15:12:50.369Z,35.43
2022-12-03T15:15:17.153Z,38.60
2022-12-03T15:17:45.801Z,34.30
2022-12-03T15:20:13.152Z,31.70
2022-12-03T15:22:40.037Z,31.77
2022-12-03T15:25:07.988Z,30.47
2022-12-03T15:27:34.827Z,32.83
2022-12-03T15:30:01.710Z,30.67
2022-12-03T15:32:28.744Z,33.00
2022-12-03T15:34:55.516Z,36.63
2022-12-03T15:37:22.406Z,29.80
2022-12-03T15:39:49.378Z,34.47
2022-12-03T15:42:17.191Z,35.87
2022-12-03T15:44:45.907Z,33.93
2022-12-03T15:47:12.766Z,27.57
2022-12-03T15:49:39.589Z,34.90
2022-12-03T15:52:07.750Z,33.57
2022-12-03T15:54:34.623Z,35.97
2022-12-03T15:57:01.484Z,33.97
2022-12-03T15:59:28.244Z,31.37
2022-12-03T16:01:55.177Z,38.50
2022-12-03T16:04:22.045Z,36.00
2022-12-03T16:06:48.858Z,39.90
2022-12-03T16:09:15.635Z,34.47
2022-12-03T16:11:42.654Z,33.93
2022-12-03T16:14:09.440Z,37.13
2022-12-03T16:16:36.391Z,37.30
2022-12-03T16:19:03.567Z,34.57
2022-12-03T16:21:34.919Z,32.60
2022-12-03T16:24:01.914Z,35.73
2022-12-03T16:26:29.052Z,32.80
2022-12-03T16:28:56.016Z,32.87
2022-12-03T16:31:23.176Z,36.20
2022-12-03T16:33:50.614Z,38.30
2022-12-03T16:36:18.362Z,37.63
2022-12-03T16:38:45.262Z,31.43
2022-12-03T16:41:12.103Z,37.30
2022-12-03T16:43:39.032Z,35.43
2022-12-03T16:46:27.587Z,33.77
2022-12-03T16:48:58.999Z,35.57
2022-12-03T16:51:27.870Z,29.37
2022-12-03T16:53:55.037Z,31.63
2022-12-03T16:56:25.619Z,32.77
2022-12-03T16:58:52.376Z,33.97
2022-12-03T17:01:23.410Z,40.00
2022-12-03T17:03:51.296Z,34.77
2022-12-03T17:06:18.081Z,35.10
2022-12-03T17:08:49.372Z,38.77
2022-12-03T17:11:17.586Z,37.57
2022-12-03T17:13:45.466Z,40.97
2022-12-03T17:16:12.415Z,38.20
2022-12-03T17:18:39.213Z,39.67
2022-12-03T17:21:06.573Z,42.67
2022-12-03T17:23:33.325Z,38.80
2022-12-03T17:26:00.141Z,42.23
2022-12-03T17:28:27.005Z,41.37
2022-12-03T17:30:53.886Z,39.67
2022-12-03T17:33:20.744Z,42.27
2022-12-03T17:35:47.560Z,38.73
2022-12-03T17:38:14.509Z,43.60
2022-12-03T17:40:41.431Z,38.53
2022-12-03T17:43:08.350Z,38.67
2022-12-03T17:45:36.655Z,46.17
2022-12-03T17:48:03.540Z,42.00
2022-12-03T17:50:30.367Z,42.07
2022-12-03T17:52:57.113Z,43.60
2022-12-03T17:55:31.334Z,38.13
2022-12-03T17:58:04.544Z,38.83
2022-12-03T18:00:32.391Z,37.87
2022-12-03T18:02:59.284Z,47.00
2022-12-03T18:05:26.161Z,44.50
2022-12-03T18:07:53.177Z,37.03
2022-12-03T18:10:20.000Z,43.10
2022-12-03T18:12:46.864Z,38.73
2022-12-03T18:15:13.704Z,40.43
2022-12-03T18:17:40.638Z,39.27
2022-12-03T18:20:08.262Z,48.03
2022-12-03T18:22:35.564Z,43.80
2022-12-03T18:25:02.653Z,43.90
2022-12-03T18:27:29.580Z,48.13
2022-12-03T18:29:56.610Z,42.03
2022-12-03T18:32:29.349Z,47.93
2022-12-03T18:34:58.130Z,38.80
2022-12-03T18:37:28.757Z,40.73
2022-12-03T18:39:57.886Z,43.07
2022-12-03T18:42:25.620Z,45.37
2022-12-03T18:44:56.316Z,38.93
2022-12-03T18:47:29.000Z,34.53
2022-12-03T18:49:56.886Z,41.47
2022-12-03T18:52:25.120Z,38.90
2022-12-03T18:54:52.070Z,37.73
2022-12-03T18:57:19.022Z,39.73
2022-12-03T18:59:46.166Z,44.23
2022-12-03T19:02:38.944Z,41.63
2022-12-03T19:05:05.323Z,42.13
2022-12-03T19:07:32.210Z,42.30
2022-12-03T19:09:59.116Z,38.80
2022-12-03T19:12:25.911Z,43.53
2022-12-03T19:14:52.841Z,43.93
2022-12-03T19:17:19.862Z,42.27
2022-12-03T19:19:46.731Z,42.67
2022-12-03T19:22:13.543Z,42.00
2022-12-03T19:24:40.403Z,39.33
2022-12-03T19:27:07.372Z,40.13
2022-12-03T19:29:34.472Z,36.03
2022-12-03T19:32:01.307Z,37.67
2022-12-03T19:34:28.380Z,42.37
2022-12-03T19:36:55.205Z,40.43
2022-12-03T19:39:22.091Z,37.60
2022-12-03T19:41:48.901Z,35.60
2022-12-03T19:44:17.886Z,40.20
2022-12-03T19:46:45.650Z,41.83
2022-12-03T19:49:12.586Z,37.20
2022-12-03T19:51:41.440Z,42.50
2022-12-03T19:54:14.566Z,39.00
2022-12-03T19:56:41.684Z,47.13
2022-12-03T19:59:08.726Z,44.97
2022-12-03T20:01:36.629Z,42.10
2022-12-03T20:04:04.545Z,47.27
2022-12-03T20:06:35.135Z,38.63
2022-12-03T20:09:11.873Z,43.80
2022-12-03T20:11:41.889Z,44.37
2022-12-03T20:14:15.352Z,46.37
2022-12-03T20:16:43.031Z,46.43
2022-12-03T20:19:14.014Z,49.63
2022-12-03T20:21:43.106Z,44.00
2022-12-03T20:24:15.255Z,43.80
2022-12-03T20:26:43.280Z,40.37
2022-12-03T20:29:10.082Z,40.47
2022-12-03T20:31:37.089Z,40.70
2022-12-03T20:34:04.738Z,44.43
2022-12-03T20:36:32.629Z,45.57
2022-12-03T20:39:04.869Z,44.40
2022-12-03T20:41:35.130Z,51.43
2022-12-03T20:44:03.089Z,45.33
2022-12-03T20:46:31.548Z,47.07
2022-12-03T20:48:59.526Z,41.47
2022-12-03T20:51:29.879Z,44.13
2022-12-03T20:53:59.449Z,47.30
2022-12-03T20:56:33.732Z,47.50
2022-12-03T20:59:04.885Z,51.37
2022-12-03T21:01:32.764Z,42.97
2022-12-03T21:03:59.767Z,43.20
2022-12-03T21:06:29.750Z,46.03
2022-12-03T21:08:59.428Z,50.63
2022-12-03T21:11:29.910Z,46.13
2022-12-03T21:13:58.761Z,50.57
2022-12-03T21:16:59.421Z,48.83
2022-12-03T21:19:17.745Z,49.33
2022-12-03T21:21:44.637Z,48.20
2022-12-03T21:24:13.433Z,53.60
2022-12-03T21:26:41.421Z,49.97
2022-12-03T21:29:08.642Z,52.63
2022-12-03T21:31:37.286Z,54.83
2022-12-03T21:34:05.128Z,47.43
2022-12-03T21:36:32.334Z,51.07
2022-12-03T21:38:59.201Z,46.17
2022-12-03T21:41:26.135Z,47.67
2022-12-03T21:43:52.980Z,46.47
2022-12-03T21:47:08.339Z,53.30
2022-12-03T21:49:06.700Z,38.57
2022-12-03T21:51:33.586Z,44.47
2022-12-03T21:54:00.569Z,45.87
2022-12-03T21:56:30.268Z,48.00
2022-12-03T21:58:57.411Z,54.77
2022-12-03T22:01:25.475Z,47.47
2022-12-03T22:03:52.374Z,47.13
2022-12-03T22:06:19.395Z,42.60
2022-12-03T22:08:47.189Z,44.63
2022-12-03T22:11:23.404Z,47.43
2022-12-03T22:13:51.243Z,47.77
2022-12-03T22:16:21.446Z,47.90
2022-12-03T22:18:49.143Z,52.20
2022-12-03T22:21:19.712Z,45.00
2022-12-03T22:23:46.600Z,44.17
2022-12-03T22:26:16.803Z,46.87
2022-12-03T22:28:49.235Z,46.17
2022-12-03T22:31:18.212Z,45.10
2022-12-03T22:33:48.183Z,49.87
2022-12-03T22:36:20.999Z,48.30
2022-12-03T22:38:51.923Z,48.27
2022-12-03T22:41:19.582Z,45.57
2022-12-03T22:43:48.165Z,40.53
2022-12-03T22:46:16.910Z,48.53
2022-12-03T22:48:46.591Z,39.57
2022-12-03T22:51:18.108Z,47.37
2022-12-03T22:53:45.235Z,47.60
2022-12-03T22:56:13.048Z,47.93
2022-12-03T22:58:41.124Z,47.67
2022-12-03T23:01:08.278Z,47.97
2022-12-03T23:03:35.960Z,52.90
2022-12-03T23:06:10.949Z,46.17
2022-12-03T23:08:38.310Z,47.60
2022-12-03T23:11:05.794Z,48.30
2022-12-03T23:13:33.794Z,51.83
2022-12-03T23:16:02.496Z,47.27
2022-12-03T23:18:29.374Z,45.80
2022-12-03T23:20:57.118Z,44.03
2022-12-03T23:23:27.353Z,45.50
2022-12-03T23:26:04.452Z,50.93
2022-12-03T23:28:34.494Z,41.10
2022-12-03T23:31:02.190Z,50.83
2022-12-03T23:33:31.944Z,49.60
2022-12-03T23:36:05.419Z,47.17
2022-12-03T23:38:32.372Z,50.83
2022-12-03T23:41:08.411Z,48.80
2022-12-03T23:43:35.346Z,49.30
2022-12-03T23:46:24.505Z,52.37
2022-12-03T23:48:51.898Z,44.93
2022-12-03T23:51:25.323Z,50.23
2022-12-03T23:53:54.682Z,46.23
2022-12-03T23:56:26.338Z,49.10
2022-12-03T23:58:53.264Z,50.27
